Time;durP1;ratioP1;P1;durP2;ratioP2;P2;SDS_P1;SDS_P2;PMS_P1;PMS_P2;Temp;Humidity;BMP_temperature;BMP_pressure;BME280_temperature;BME280_humidity;BME280_pressure;Samples;Min_cycle;Max_cycle;Signal;HPM_P1;HPM_P2
2022/06/27 00:00:51;;;;;;;;;2.00;2.00;;;;;20.98;51.88;101077.81;5100136;27;45186;-77
2022/06/27 00:03:16;;;;;;;;;3.00;3.00;;;;;20.97;51.92;101073.34;5090509;27;45234;-76
2022/06/27 00:05:42;;;;;;;;;3.00;3.00;;;;;20.94;51.94;101065.41;5102450;27;45252;-77
2022/06/27 00:08:07;;;;;;;;;2.75;2.00;;;;;20.84;51.94;101051.63;5102493;27;46346;-76
2022/06/27 00:10:33;;;;;;;;;3.00;3.00;;;;;20.81;51.94;101057.25;5102471;27;45333;-76
2022/06/27 00:12:58;;;;;;;;;3.25;2.00;;;;;20.87;52.12;101081.25;5093370;27;45348;-76
2022/06/27 00:15:24;;;;;;;;;2.00;2.00;;;;;20.85;51.93;101085.06;5096641;27;45315;-77
2022/06/27 00:17:49;;;;;;;;;2.00;2.00;;;;;20.77;51.98;101084.75;5102319;27;46105;-76
2022/06/27 00:20:15;;;;;;;;;3.00;3.00;;;;;20.76;52.45;101091.13;5101919;27;45333;-77
2022/06/27 00:22:40;;;;;;;;;4.25;2.25;;;;;20.70;52.09;101082.44;5101081;27;45440;-77
2022/06/27 00:25:08;;;;;;;;;2.00;2.00;;;;;20.70;51.87;101082.44;5102220;27;45536;-77
2022/06/27 00:27:33;;;;;;;;;5.25;4.00;;;;;20.76;52.06;101088.41;5117636;27;48146;-76
2022/06/27 00:29:58;;;;;;;;;1.00;1.00;;;;;20.71;52.01;101078.78;5101862;27;45358;-77
2022/06/27 00:32:26;;;;;;;;;1.50;1.50;;;;;20.69;52.10;101080.69;5102675;27;45204;-77
2022/06/27 00:34:51;;;;;;;;;3.00;2.00;;;;;20.57;52.08;101051.69;5101686;27;45420;-77
2022/06/27 00:37:17;;;;;;;;;2.25;1.00;;;;;20.64;51.93;101065.72;5102124;27;46099;-76
2022/06/27 00:39:42;;;;;;;;;3.75;2.00;;;;;20.59;52.28;101067.88;5101838;27;45380;-76
2022/06/27 00:42:07;;;;;;;;;2.00;1.00;;;;;20.59;52.19;101076.00;5102047;27;45313;-77
2022/06/27 00:44:39;;;;;;;;;2.25;1.75;;;;;20.57;51.94;101075.25;5101963;27;45544;-76
2022/06/27 00:47:07;;;;;;;;;4.75;2.00;;;;;20.50;52.13;101064.81;5101910;27;46750;-76
2022/06/27 00:49:34;;;;;;;;;2.75;1.75;;;;;20.48;52.41;101069.47;5101498;27;45572;-77
2022/06/27 00:52:03;;;;;;;;;4.00;3.00;;;;;20.46;52.07;101073.25;5100867;27;45401;-76
2022/06/27 00:54:28;;;;;;;;;4.25;3.00;;;;;20.45;52.67;101076.97;5101695;27;45393;-76
2022/06/27 00:56:54;;;;;;;;;1.00;1.00;;;;;20.38;52.27;101053.94;5101702;27;46010;-76
2022/06/27 00:59:19;;;;;;;;;2.00;2.00;;;;;20.45;52.58;101076.97;5101647;27;45211;-76
2022/06/27 01:01:45;;;;;;;;;1.00;1.00;;;;;20.43;52.33;101084.31;5091144;27;45152;-76
2022/06/27 01:04:10;;;;;;;;;2.00;2.00;;;;;20.30;52.29;101068.91;5096765;27;45185;-77
2022/06/27 01:06:36;;;;;;;;;3.00;3.00;;;;;20.41;52.55;101084.41;5101616;27;46011;-77
2022/06/27 01:09:02;;;;;;;;;1.75;1.50;;;;;20.34;52.31;101081.25;5101442;27;45211;-76
2022/06/27 01:11:28;;;;;;;;;2.50;2.50;;;;;20.36;52.25;101082.03;5101582;27;45226;-77
2022/06/27 01:13:54;;;;;;;;;2.00;1.00;;;;;20.39;52.29;101093.63;5101324;27;45294;-76
2022/06/27 01:16:19;;;;;;;;;1.00;1.00;;;;;20.36;52.15;101082.03;5101372;27;45416;-76
2022/06/27 01:18:45;;;;;;;;;1.50;1.50;;;;;20.33;52.47;101084.94;5101203;27;45300;-76
2022/06/27 01:21:20;;;;;;;;;2.00;2.00;;;;;20.29;52.53;101077.97;5100564;27;45485;-77
2022/06/27 01:23:45;;;;;;;;;2.00;2.00;;;;;20.30;52.45;101090.56;5099309;27;45964;-76
2022/06/27 01:26:11;;;;;;;;;1.00;1.00;;;;;20.29;52.59;101094.25;5101296;27;46109;-76
2022/06/27 01:28:36;;;;;;;;;3.25;3.00;;;;;20.28;52.68;101095.25;5099439;27;45434;-77
2022/06/27 01:31:02;;;;;;;;;2.00;2.00;;;;;20.21;52.62;101091.19;5101332;27;45497;-76
2022/06/27 01:33:27;;;;;;;;;2.25;2.00;;;;;20.26;53.05;101113.44;5100823;27;45480;-77
2022/06/27 01:36:41;;;;;;;;;4.00;2.00;;;;;20.24;53.01;101112.66;5101009;27;49444;-76
2022/06/27 01:38:38;;;;;;;;;2.00;2.00;;;;;20.15;52.82;101099.75;5100801;27;45404;-77
2022/06/27 01:41:03;;;;;;;;;4.00;4.00;;;;;20.21;52.51;101109.31;5100878;27;45216;-76
2022/06/27 01:43:29;;;;;;;;;3.00;3.00;;;;;20.08;52.45;101091.16;5100919;27;45485;-76
2022/06/27 01:45:54;;;;;;;;;4.50;3.50;;;;;20.11;52.78;101090.06;5100849;27;45349;-76
2022/06/27 01:48:21;;;;;;;;;1.50;1.50;;;;;20.23;52.49;101094.69;5100804;27;45415;-76
2022/06/27 01:50:50;;;;;;;;;2.75;2.75;;;;;20.20;52.59;101094.88;5099855;27;45728;-77
2022/06/27 01:53:17;;;;;;;;;3.00;3.00;;;;;20.23;52.43;101097.41;5100850;27;45564;-77
2022/06/27 01:55:42;;;;;;;;;2.00;2.00;;;;;20.26;52.50;101089.03;5099779;27;46356;-77
2022/06/27 01:58:08;;;;;;;;;3.00;2.00;;;;;20.25;52.55;101095.44;5100814;27;45148;-77
2022/06/27 02:00:33;;;;;;;;;1.25;1.25;;;;;20.20;52.68;101081.34;5100941;27;45299;-76
2022/06/27 02:03:00;;;;;;;;;3.00;2.25;;;;;20.03;52.49;101058.09;5086779;27;45207;-77
2022/06/27 02:05:25;;;;;;;;;2.00;2.00;;;;;20.12;52.87;101073.72;5100622;27;46309;-76
2022/06/27 02:07:52;;;;;;;;;2.00;2.00;;;;;20.11;52.41;101073.81;5099264;27;45304;-76
2022/06/27 02:10:17;;;;;;;;;2.25;1.00;;;;;20.09;52.96;101071.19;5100654;27;45326;-77
2022/06/27 02:12:43;;;;;;;;;3.00;2.50;;;;;20.17;52.52;101076.97;5100448;27;45300;-76
2022/06/27 02:15:09;;;;;;;;;2.00;2.00;;;;;20.11;52.73;101066.56;5100267;27;45510;-76
2022/06/27 02:17:35;;;;;;;;;1.50;1.50;;;;;20.16;52.51;101082.50;5100479;27;45282;-77
2022/06/27 02:20:01;;;;;;;;;1.50;1.50;;;;;20.11;52.44;101062.97;5098923;27;45431;-76
2022/06/27 02:22:28;;;;;;;;;2.00;2.00;;;;;20.14;52.58;101068.19;5099140;27;45571;-76
2022/06/27 02:24:54;;;;;;;;;2.00;1.00;;;;;20.09;52.63;101067.63;5102570;27;45276;-76
2022/06/27 02:27:21;;;;;;;;;2.00;1.00;;;;;20.08;53.03;101091.16;5102760;27;45291;-76
2022/06/27 02:29:46;;;;;;;;;2.00;2.00;;;;;20.08;52.75;101091.16;5104103;27;45153;-77
2022/06/27 02:32:11;;;;;;;;;1.00;1.00;;;;;20.05;52.69;101077.81;5104001;27;45323;-76
2022/06/27 02:34:38;;;;;;;;;2.25;1.75;;;;;20.07;52.54;101078.56;5102357;27;47188;-77
2022/06/27 02:37:04;;;;;;;;;4.50;2.50;;;;;20.15;52.82;101088.91;5103843;27;45304;-76
2022/06/27 02:39:31;;;;;;;;;2.25;1.75;;;;;20.12;53.06;101081.84;5102663;27;45421;-76
2022/06/27 02:41:58;;;;;;;;;4.00;2.50;;;;;20.11;52.99;101096.38;5103737;27;45602;-76
2022/06/27 02:44:26;;;;;;;;;2.75;2.75;;;;;20.06;53.09;101086.81;5102503;27;47272;-76
2022/06/27 02:46:52;;;;;;;;;3.25;3.25;;;;;20.09;52.76;101101.00;5102490;27;45357;-76
2022/06/27 02:49:19;;;;;;;;;3.50;3.00;;;;;20.09;53.20;101094.72;5103622;27;45491;-77
2022/06/27 02:52:12;;;;;;;;;2.75;2.25;;;;;20.10;53.09;101100.06;5102695;27;45302;-76
2022/06/27 02:54:42;;;;;;;;;4.75;2.00;;;;;20.09;53.14;101106.44;5103460;27;46364;-77
2022/06/27 02:57:25;;;;;;;;;7.25;4.25;;;;;20.02;53.10;101099.69;5103903;27;45480;-76
2022/06/27 02:59:54;;;;;;;;;4.00;3.00;;;;;20.13;53.04;101112.50;5103522;27;45323;-76
2022/06/27 03:02:21;;;;;;;;;4.75;4.75;;;;;20.09;53.08;101102.88;5089639;27;45377;-76
2022/06/27 03:04:47;;;;;;;;;3.75;3.00;;;;;20.14;52.90;101108.84;5094732;27;47071;-77
2022/06/27 03:07:12;;;;;;;;;3.00;3.00;;;;;20.10;53.10;101096.47;5097111;27;45432;-76
2022/06/27 03:09:37;;;;;;;;;5.50;4.25;;;;;20.12;53.00;101091.81;5103623;27;45476;-77
2022/06/27 03:12:03;;;;;;;;;3.00;2.75;;;;;20.15;53.14;101091.63;5103440;27;45440;-77
2022/06/27 03:14:28;;;;;;;;;3.25;3.00;;;;;20.07;52.99;101075.00;5103425;27;46312;-76
2022/06/27 03:16:53;;;;;;;;;4.00;4.00;;;;;20.10;52.98;101072.94;5103137;27;45310;-76
2022/06/27 03:19:19;;;;;;;;;4.00;3.00;;;;;20.18;52.82;101088.72;5103484;27;45370;-77
2022/06/27 03:21:46;;;;;;;;;3.00;3.00;;;;;20.10;52.82;101070.25;5101956;27;45328;-77
2022/06/27 03:24:11;;;;;;;;;4.00;4.00;;;;;20.15;53.14;101080.78;5102509;27;45528;-76
2022/06/27 03:26:37;;;;;;;;;2.25;1.50;;;;;20.06;53.01;101074.13;5103154;27;45372;-77
2022/06/27 03:29:03;;;;;;;;;1.00;1.00;;;;;20.02;53.30;101075.31;5103689;27;45298;-77
2022/06/27 03:31:28;;;;;;;;;2.00;1.25;;;;;20.09;53.33;101070.34;5102997;27;45383;-76
2022/06/27 03:33:54;;;;;;;;;2.25;2.25;;;;;20.02;53.58;101061.75;5102978;27;46432;-76
2022/06/27 03:36:20;;;;;;;;;2.00;1.00;;;;;20.06;53.49;101078.66;5103010;27;45252;-77
2022/06/27 03:38:45;;;;;;;;;2.50;2.50;;;;;20.06;53.46;101071.41;5103024;27;45325;-77
2022/06/27 03:41:10;;;;;;;;;2.50;2.50;;;;;19.97;53.34;101056.63;5101108;27;45698;-76
2022/06/27 03:43:35;;;;;;;;;1.00;1.00;;;;;19.96;53.53;101048.59;5101850;27;47456;-76
2022/06/27 03:46:01;;;;;;;;;3.00;3.00;;;;;20.03;53.86;101071.63;5102771;27;45226;-77
2022/06/27 03:51:10;;;;;;;;;2.00;0.50;;;;;20.02;53.71;101082.56;5102712;27;45420;-76
2022/06/27 03:53:36;;;;;;;;;2.00;2.00;;;;;19.99;53.81;101089.91;5102956;27;45441;-76
2022/06/27 03:56:02;;;;;;;;;2.00;2.00;;;;;19.96;53.70;101094.66;5087819;27;45776;-76
2022/06/27 03:58:28;;;;;;;;;2.00;2.00;;;;;19.92;53.98;101091.31;5102969;27;45413;-76
2022/06/27 04:00:53;;;;;;;;;4.50;2.00;;;;;19.91;53.94;101095.00;5101163;27;45611;-76
2022/06/27 04:03:18;;;;;;;;;2.00;2.00;;;;;19.88;53.83;101092.50;5102472;27;45514;-76
2022/06/27 04:05:44;;;;;;;;;2.50;1.75;;;;;19.87;53.89;101100.72;5102460;27;45435;-76
2022/06/27 04:08:09;;;;;;;;;1.50;1.50;;;;;19.90;53.85;101104.09;5102866;27;45378;-76
2022/06/27 04:10:34;;;;;;;;;3.25;2.00;;;;;19.85;54.14;101079.13;5101134;27;45599;-77
2022/06/27 04:13:00;;;;;;;;;3.50;2.25;;;;;19.88;54.11;101106.03;5102407;27;46474;-76
2022/06/27 04:15:26;;;;;;;;;2.75;2.75;;;;;19.93;54.23;101124.66;5102258;27;45338;-76
2022/06/27 04:17:51;;;;;;;;;2.00;2.00;;;;;19.87;54.29;101106.13;5102421;27;45391;-76
2022/06/27 04:20:16;;;;;;;;;2.00;2.00;;;;;19.83;54.20;101105.47;5102309;27;45362;-76
2022/06/27 04:22:42;;;;;;;;;2.00;2.00;;;;;19.91;54.14;101124.81;5102204;27;46466;-75
2022/06/27 04:25:07;;;;;;;;;2.50;2.50;;;;;19.82;54.36;101122.69;5102223;27;45265;-76
2022/06/27 04:27:33;;;;;;;;;2.75;2.50;;;;;19.81;54.43;101120.94;5102457;27;45380;-76
2022/06/27 04:29:58;;;;;;;;;3.00;3.00;;;;;19.87;54.69;101136.78;5100775;27;45252;-76
2022/06/27 04:32:28;;;;;;;;;3.00;3.00;;;;;19.80;54.62;101144.44;5102207;27;45210;-76
2022/06/27 04:34:53;;;;;;;;;3.25;2.50;;;;;19.75;54.85;101143.00;5101760;27;45438;-76
2022/06/27 04:37:19;;;;;;;;;4.00;4.00;;;;;19.79;54.92;101156.25;5102328;27;45726;-76
2022/06/27 04:39:45;;;;;;;;;2.00;2.00;;;;;19.72;55.15;101157.56;5100626;27;45399;-76
2022/06/27 04:42:10;;;;;;;;;3.25;3.25;;;;;19.67;55.15;101153.44;5101850;27;45312;-76
2022/06/27 04:44:38;;;;;;;;;4.00;3.00;;;;;19.78;55.06;101178.03;5100475;27;45423;-76
2022/06/27 04:47:13;;;;;;;;;6.00;3.25;;;;;19.76;55.52;101178.13;5101375;27;45315;-77
2022/06/27 04:49:39;;;;;;;;;3.50;3.00;;;;;19.71;55.21;101166.69;5101498;27;45345;-76
2022/06/27 04:52:08;;;;;;;;;2.00;2.00;;;;;19.68;55.08;101147.94;5101784;27;45314;-77
2022/06/27 04:54:35;;;;;;;;;1.75;1.75;;;;;19.67;55.12;101140.75;5101754;27;45465;-76
2022/06/27 04:57:00;;;;;;;;;4.00;4.00;;;;;19.64;55.45;101135.53;5101843;27;45334;-76
2022/06/27 04:59:25;;;;;;;;;4.00;3.25;;;;;19.67;55.41;101150.72;5101429;27;45393;-76
2022/06/27 05:01:51;;;;;;;;;3.75;2.00;;;;;19.56;55.39;101127.91;5091342;27;46468;-76
2022/06/27 05:04:21;;;;;;;;;3.75;3.00;;;;;19.58;55.47;101128.69;5097270;27;45413;-76
2022/06/27 05:06:48;;;;;;;;;2.25;2.25;;;;;19.51;55.57;101112.91;5090385;27;45267;-76
2022/06/27 05:09:14;;;;;;;;;3.00;3.00;;;;;19.55;55.66;101112.63;5096953;27;45560;-76
2022/06/27 05:11:40;;;;;;;;;3.25;3.25;;;;;19.53;55.86;101121.81;5100736;27;46205;-76
2022/06/27 05:14:06;;;;;;;;;3.25;3.25;;;;;19.53;55.69;101127.22;5101441;27;45337;-76
2022/06/27 05:16:32;;;;;;;;;2.75;2.25;;;;;19.51;56.02;101143.59;5101447;27;45500;-76
2022/06/27 05:18:57;;;;;;;;;3.00;2.00;;;;;19.48;56.12;101132.94;5101154;27;45404;-76
2022/06/27 05:21:23;;;;;;;;;4.50;3.50;;;;;19.58;55.98;101139.50;5101115;27;46681;-77
2022/06/27 05:23:50;;;;;;;;;3.50;3.00;;;;;19.54;56.13;101121.72;5099966;27;45247;-76
2022/06/27 05:26:16;;;;;;;;;5.00;3.25;;;;;19.61;56.07;101131.19;5101460;27;45312;-76
2022/06/27 05:28:41;;;;;;;;;2.25;2.25;;;;;19.62;55.88;101126.66;5101172;27;45344;-75
2022/06/27 05:31:07;;;;;;;;;4.00;3.00;;;;;19.57;56.22;101115.25;5101145;27;45337;-76
2022/06/27 05:33:32;;;;;;;;;3.00;3.00;;;;;19.63;56.21;101156.34;5100703;27;45598;-76
2022/06/27 05:35:57;;;;;;;;;3.00;3.00;;;;;19.63;56.44;101159.03;5101416;27;45292;-76
2022/06/27 05:38:23;;;;;;;;;3.50;3.00;;;;;19.61;56.37;101125.78;5069424;27;45919;-76
2022/06/27 05:40:49;;;;;;;;;3.00;3.00;;;;;19.61;56.45;101133.91;5098559;27;45472;-75
2022/06/27 05:43:14;;;;;;;;;3.25;2.25;;;;;19.69;56.44;101170.44;5099026;27;45325;-76
2022/06/27 05:45:40;;;;;;;;;3.00;3.00;;;;;19.70;56.08;101172.19;5101030;27;45544;-76
2022/06/27 05:48:07;;;;;;;;;4.00;4.00;;;;;19.65;55.81;101147.25;5100742;27;45263;-76
2022/06/27 05:50:32;;;;;;;;;2.00;2.00;;;;;19.67;56.03;101156.16;5098549;27;45448;-76
2022/06/27 05:52:59;;;;;;;;;3.75;3.00;;;;;19.74;55.91;101171.03;5097731;27;45281;-76
2022/06/27 05:55:28;;;;;;;;;2.50;2.50;;;;;19.72;55.71;101168.41;5101025;27;45207;-76
2022/06/27 05:57:56;;;;;;;;;3.50;3.50;;;;;19.75;55.96;101173.66;5100334;27;45405;-76
2022/06/27 06:00:23;;;;;;;;;3.00;3.00;;;;;19.73;56.01;101172.88;5100074;27;46314;-76
2022/06/27 06:02:49;;;;;;;;;3.50;3.00;;;;;19.61;55.77;101158.28;5095625;27;45535;-76
2022/06/27 06:05:14;;;;;;;;;2.75;2.75;;;;;19.61;56.16;101168.22;5091432;27;45303;-75
2022/06/27 06:07:42;;;;;;;;;2.25;2.25;;;;;19.66;56.29;101193.16;5099316;27;45532;-76
2022/06/27 06:10:08;;;;;;;;;3.50;2.00;;;;;19.67;56.01;101188.66;5100611;27;45558;-75
2022/06/27 06:12:34;;;;;;;;;5.00;3.00;;;;;19.61;56.22;101181.75;5100450;27;45646;-75
2022/06/27 06:15:02;;;;;;;;;2.00;2.00;;;;;19.60;56.31;101178.19;5100689;27;45418;-75
2022/06/27 06:17:29;;;;;;;;;2.00;2.00;;;;;19.65;56.27;101190.59;5099049;27;45503;-75
2022/06/27 06:19:55;;;;;;;;;4.25;2.25;;;;;19.66;56.26;101181.47;5100216;27;45537;-75
2022/06/27 06:22:20;;;;;;;;;2.75;2.75;;;;;19.65;56.57;101158.94;5100422;27;45362;-75
2022/06/27 06:24:47;;;;;;;;;3.00;2.75;;;;;19.60;56.50;101151.13;5099244;27;45246;-75
2022/06/27 06:27:13;;;;;;;;;6.00;3.75;;;;;19.64;56.70;101187.00;5100328;27;45335;-76
2022/06/27 06:29:40;;;;;;;;;6.25;6.00;;;;;19.55;56.47;101191.16;5100294;27;45637;-75
2022/06/27 06:32:07;;;;;;;;;5.00;3.00;;;;;19.61;56.45;101201.59;5100266;27;45604;-76
2022/06/27 06:34:33;;;;;;;;;5.75;5.00;;;;;19.71;56.46;101201.00;5100392;27;45309;-77
2022/06/27 06:36:58;;;;;;;;;2.75;2.75;;;;;19.70;56.29;101213.69;5100333;27;45292;-77
2022/06/27 06:39:24;;;;;;;;;2.00;2.00;;;;;19.69;56.02;101225.47;5100130;27;46269;-77
2022/06/27 06:41:50;;;;;;;;;3.00;3.00;;;;;19.68;56.28;101212.91;5099724;27;45238;-76
2022/06/27 06:44:16;;;;;;;;;3.25;3.00;;;;;19.71;56.31;101210.03;5098000;27;45227;-77
2022/06/27 06:46:41;;;;;;;;;4.25;3.00;;;;;19.66;56.18;101198.59;5099904;27;45299;-76
2022/06/27 06:49:09;;;;;;;;;3.00;3.00;;;;;19.68;56.33;101212.03;5099896;27;46957;-72
2022/06/27 06:51:36;;;;;;;;;4.25;4.25;;;;;19.67;56.60;101222.00;5100027;27;45461;-73
2022/06/27 06:54:04;;;;;;;;;3.00;3.00;;;;;19.47;56.73;101195.31;5100357;27;45324;-73
2022/06/27 06:56:30;;;;;;;;;3.25;1.00;;;;;19.59;56.47;101225.19;5099850;27;45616;-78
2022/06/27 06:59:00;;;;;;;;;5.50;4.00;;;;;19.59;56.29;101225.19;5099953;27;45623;-77
2022/06/27 07:01:27;;;;;;;;;4.50;3.50;;;;;19.67;56.18;101234.69;5099678;27;45396;-77
2022/06/27 07:03:53;;;;;;;;;3.75;3.00;;;;;19.74;56.31;101249.56;5100065;27;45721;-76
2022/06/27 07:06:24;;;;;;;;;3.00;3.00;;;;;19.75;56.16;101264.91;5100150;27;45559;-74
2022/06/27 07:08:51;;;;;;;;;3.50;2.00;;;;;19.68;56.59;101252.66;5098475;27;47161;-77
2022/06/27 07:11:17;;;;;;;;;3.50;3.50;;;;;19.81;56.22;101278.03;5102606;27;45473;-77
2022/06/27 07:13:43;;;;;;;;;3.50;3.00;;;;;19.75;56.27;101271.19;5102160;27;45282;-77
2022/06/27 07:16:09;;;;;;;;;3.00;2.50;;;;;19.77;56.00;101285.50;5101492;27;45392;-76
2022/06/27 07:18:34;;;;;;;;;3.50;3.00;;;;;19.75;55.76;101290.13;5102940;27;47047;-76
2022/06/27 07:21:00;;;;;;;;;2.75;1.75;;;;;19.74;55.62;101276.66;5103257;27;45361;-77
2022/06/27 07:23:26;;;;;;;;;2.50;2.50;;;;;19.76;55.43;101280.16;5101177;27;45271;-77
2022/06/27 07:25:51;;;;;;;;;2.00;2.00;;;;;19.80;55.46;101293.44;5103363;27;45218;-76
2022/06/27 07:28:25;;;;;;;;;3.00;2.00;;;;;19.83;55.37;101291.50;5103022;27;45913;-72
2022/06/27 07:30:51;;;;;;;;;2.00;2.00;;;;;19.76;55.54;101275.63;5103228;27;45534;-77
2022/06/27 07:33:17;;;;;;;;;2.25;2.25;;;;;19.83;55.16;101283.34;5101988;27;45388;-77
2022/06/27 07:35:43;;;;;;;;;3.25;3.00;;;;;19.82;55.14;101282.50;5103062;27;45455;-77
2022/06/27 07:38:08;;;;;;;;;3.00;3.00;;;;;19.83;54.90;101278.84;5102957;27;46182;-77
2022/06/27 07:40:34;;;;;;;;;3.75;2.00;;;;;19.88;54.82;101276.72;5101513;27;45356;-77
2022/06/27 07:42:59;;;;;;;;;3.00;3.00;;;;;19.89;55.07;101281.13;5101429;27;45314;-77
2022/06/27 07:45:27;;;;;;;;;2.00;2.00;;;;;19.87;54.96;101285.78;5102920;27;45316;-71
2022/06/27 07:47:56;;;;;;;;;2.00;2.00;;;;;19.84;54.92;101277.84;5102369;27;46442;-77
2022/06/27 07:50:37;;;;;;;;;3.00;2.00;;;;;19.84;54.90;101277.00;5101550;27;45439;-77
2022/06/27 07:53:11;;;;;;;;;3.50;3.50;;;;;19.90;55.08;101287.44;5102871;27;45385;-78
2022/06/27 07:55:39;;;;;;;;;5.50;4.00;;;;;19.96;54.87;101287.94;5101369;27;45389;-78
2022/06/27 07:58:05;;;;;;;;;3.00;2.00;;;;;19.91;54.88;101275.63;5101531;27;46317;-78
2022/06/27 08:00:30;;;;;;;;;2.75;2.75;;;;;19.88;54.42;101273.09;5100509;27;45332;-76
2022/06/27 08:02:55;;;;;;;;;2.50;2.50;;;;;19.97;54.25;101286.94;5088278;27;45501;-78
2022/06/27 08:05:21;;;;;;;;;2.00;2.00;;;;;20.09;54.13;101308.81;5102444;27;45286;-73
2022/06/27 08:07:46;;;;;;;;;2.75;2.75;;;;;20.03;53.92;101284.81;5102226;27;45720;-74
2022/06/27 08:10:12;;;;;;;;;2.50;2.50;;;;;20.07;53.89;101286.38;5100724;27;45235;-74
2022/06/27 08:12:37;;;;;;;;;2.00;2.00;;;;;20.16;53.99;101297.50;5102589;27;45484;-77
2022/06/27 08:15:03;;;;;;;;;2.50;2.50;;;;;20.12;54.05;101278.81;5101137;27;45464;-77
2022/06/27 08:17:29;;;;;;;;;2.25;1.75;;;;;20.30;53.92;101310.16;5101769;27;45376;-77
2022/06/27 08:19:54;;;;;;;;;2.75;2.25;;;;;20.33;53.59;101319.91;5102400;27;45397;-77
2022/06/27 08:22:24;;;;;;;;;4.25;2.75;;;;;20.34;53.32;101319.81;5081569;27;45414;-77
2022/06/27 08:24:49;;;;;;;;;2.00;2.00;;;;;20.26;53.36;101311.31;5093890;27;45309;-77
2022/06/27 08:27:15;;;;;;;;;2.00;2.00;;;;;20.28;53.29;101331.09;5102160;27;45430;-77
2022/06/27 08:29:41;;;;;;;;;2.50;2.00;;;;;20.37;52.89;101337.75;5097269;27;45284;-77
2022/06/27 08:32:07;;;;;;;;;1.75;1.75;;;;;20.36;53.15;101331.47;5100409;27;45363;-77
2022/06/27 08:34:33;;;;;;;;;2.75;2.00;;;;;20.30;53.37;101318.28;5100682;27;45246;-77
2022/06/27 08:36:59;;;;;;;;;2.25;2.25;;;;;20.27;53.12;101318.50;5101855;27;46058;-77
2022/06/27 08:39:25;;;;;;;;;1.75;1.75;;;;;20.37;53.10;101340.47;5100471;27;45517;-77
2022/06/27 08:41:51;;;;;;;;;2.50;2.00;;;;;20.34;53.02;101341.50;5101716;27;45398;-77
2022/06/27 08:44:17;;;;;;;;;2.00;2.00;;;;;20.41;52.89;101352.84;5102273;27;45498;-77
2022/06/27 08:46:46;;;;;;;;;3.50;2.00;;;;;20.30;52.59;101321.00;5101640;27;46461;-77
2022/06/27 08:49:14;;;;;;;;;2.25;1.00;;;;;20.38;53.41;101330.47;5101673;27;45426;-77
2022/06/27 08:51:41;;;;;;;;;2.25;0.50;;;;;20.39;52.99;101337.66;5101862;27;45302;-76
2022/06/27 08:54:07;;;;;;;;;1.75;1.75;;;;;20.29;53.11;101332.81;5100684;27;45412;-75
2022/06/27 08:56:33;;;;;;;;;1.75;1.75;;;;;20.40;52.67;101342.09;5101522;27;45524;-76
2022/06/27 08:58:59;;;;;;;;;2.00;1.50;;;;;20.34;52.15;101336.09;5101874;27;45547;-77
2022/06/27 09:01:27;;;;;;;;;0.75;0.75;;;;;20.32;51.80;101321.78;5096730;27;45180;-77
2022/06/27 09:04:03;;;;;;;;;1.50;1.50;;;;;20.43;51.87;101331.94;5101281;27;45412;-77
2022/06/27 09:06:48;;;;;;;;;1.50;1.50;;;;;20.43;51.37;101331.06;5101292;27;46303;-77
2022/06/27 09:09:16;;;;;;;;;1.75;1.00;;;;;20.41;51.26;101328.44;5101256;27;45531;-77
2022/06/27 09:11:43;;;;;;;;;1.75;1.00;;;;;20.44;51.88;101325.53;5101649;27;45417;-75
2022/06/27 09:14:35;;;;;;;;;1.00;1.00;;;;;20.48;51.17;101324.38;5101383;27;45486;-76
2022/06/27 09:17:04;;;;;;;;;2.00;1.00;;;;;20.47;51.15;101319.06;5101161;27;45546;-77
2022/06/27 09:19:45;;;;;;;;;0.75;0.00;;;;;20.60;50.16;101324.53;5099912;27;45256;-77
2022/06/27 09:22:15;;;;;;;;;2.00;2.00;;;;;20.61;50.10;101326.28;5101111;27;45339;-77
2022/06/27 09:25:00;;;;;;;;;1.25;1.00;;;;;20.70;50.82;101329.28;5101512;27;45259;-77
2022/06/27 09:27:55;;;;;;;;;1.00;1.00;;;;;20.78;50.14;101333.34;5101392;27;46071;-77
2022/06/27 09:30:21;;;;;;;;;1.25;1.25;;;;;20.81;49.23;101335.84;5092114;27;45508;-78
2022/06/27 09:32:49;;;;;;;;;1.00;1.00;;;;;20.83;49.48;101336.63;5101196;27;45338;-78
2022/06/27 09:35:24;;;;;;;;;0.00;0.00;;;;;20.83;49.32;101325.75;5099319;27;45251;-77
2022/06/27 09:37:53;;;;;;;;;1.00;0.00;;;;;20.88;50.14;101323.59;5101105;27;45347;-77
2022/06/27 09:40:23;;;;;;;;;1.00;1.00;;;;;20.97;49.59;101333.00;5099448;27;45568;-77
2022/06/27 09:42:54;;;;;;;;;1.00;1.00;;;;;20.91;49.36;101324.31;5098823;27;45372;-75
2022/06/27 09:45:23;;;;;;;;;0.50;0.50;;;;;21.01;48.94;101315.53;5100853;27;45460;-76
2022/06/27 09:47:49;;;;;;;;;2.75;1.00;;;;;21.02;49.27;101317.28;5100764;27;45420;-73
2022/06/27 09:50:15;;;;;;;;;0.75;0.75;;;;;21.10;49.04;101321.22;5101001;27;45326;-79
2022/06/27 09:52:41;;;;;;;;;1.25;1.00;;;;;21.11;48.16;101319.34;5101124;27;45384;-75
2022/06/27 09:55:08;;;;;;;;;0.00;0.00;;;;;21.16;48.06;101319.91;5100986;27;45462;-76
2022/06/27 09:57:34;;;;;;;;;2.00;0.00;;;;;21.18;48.20;101322.53;5100656;27;45421;-76
2022/06/27 10:00:00;;;;;;;;;0.50;0.50;;;;;21.24;47.78;101332.97;5100837;27;45388;-76
2022/06/27 10:02:27;;;;;;;;;1.75;1.00;;;;;21.23;47.14;101325.78;5100592;27;45301;-76
2022/06/27 10:04:54;;;;;;;;;1.00;1.00;;;;;21.04;47.49;101291.75;5099661;27;45347;-76
2022/06/27 10:07:22;;;;;;;;;3.75;1.50;;;;;21.31;47.66;101325.28;5099751;27;45542;-76
2022/06/27 10:09:52;;;;;;;;;0.75;0.75;;;;;21.34;47.27;101322.38;5100559;27;45464;-77
2022/06/27 10:12:21;;;;;;;;;1.00;1.00;;;;;21.36;47.17;101337.56;5100915;27;45215;-77
2022/06/27 10:15:09;;;;;;;;;0.25;0.25;;;;;21.40;46.45;101339.09;5100519;27;45557;-76
2022/06/27 10:17:49;;;;;;;;;0.00;0.00;;;;;21.44;46.29;101346.03;5100057;27;45211;-77
2022/06/27 10:20:20;;;;;;;;;0.00;0.00;;;;;21.37;46.32;101320.28;5099097;27;45310;-76
2022/06/27 10:23:03;;;;;;;;;0.25;0.25;;;;;21.48;46.32;101338.59;5100750;27;45242;-77
2022/06/27 10:25:29;;;;;;;;;0.00;0.00;;;;;21.52;45.99;101345.56;5081122;27;45993;-75
2022/06/27 10:28:13;;;;;;;;;2.50;0.00;;;;;21.56;45.83;101343.50;5090848;27;46031;-76
2022/06/27 10:30:47;;;;;;;;;0.25;0.25;;;;;21.58;45.47;101341.53;5095660;27;45988;-76
2022/06/27 10:33:18;;;;;;;;;1.25;1.00;;;;;21.59;45.49;101335.16;5094579;27;45366;-76
2022/06/27 10:38:23;;;;;;;;;1.00;0.50;;;;;21.58;44.95;101323.38;5100255;27;46088;-75
2022/06/27 10:40:50;;;;;;;;;1.00;1.00;;;;;21.71;45.20;101338.84;5100217;27;45441;-75
2022/06/27 10:43:35;;;;;;;;;0.75;0.75;;;;;21.73;46.25;101340.47;5100198;27;45299;-76
2022/06/27 10:46:21;;;;;;;;;1.25;0.50;;;;;21.74;46.22;101325.91;5102439;27;45448;-77
2022/06/27 10:48:52;;;;;;;;;1.50;1.50;;;;;21.85;45.58;101346.88;5099232;27;45303;-76
2022/06/27 10:51:22;;;;;;;;;0.00;0.00;;;;;21.86;45.80;101355.94;5103626;27;45532;-76
2022/06/27 10:54:08;;;;;;;;;1.25;1.25;;;;;21.88;45.00;101349.38;5103887;27;45301;-75
2022/06/27 10:56:36;;;;;;;;;2.00;1.00;;;;;21.89;45.74;101342.13;5103344;27;45278;-75
2022/06/27 10:59:04;;;;;;;;;0.00;0.00;;;;;21.90;46.12;101343.84;5103802;27;46372;-76
2022/06/27 11:01:30;;;;;;;;;0.00;0.00;;;;;21.97;45.91;101339.75;5103645;27;45235;-76
2022/06/27 11:03:56;;;;;;;;;1.00;1.00;;;;;21.99;45.19;101349.50;5101228;27;45342;-76
2022/06/27 11:06:23;;;;;;;;;0.75;0.75;;;;;21.98;45.47;101342.31;5102293;27;45488;-76
2022/06/27 11:08:51;;;;;;;;;2.00;2.00;;;;;21.94;45.14;101334.50;5103414;27;46608;-76
2022/06/27 11:11:30;;;;;;;;;1.00;1.00;;;;;22.07;45.67;101346.25;5103762;27;45523;-76
2022/06/27 11:13:59;;;;;;;;;1.00;1.00;;;;;22.00;44.60;101315.91;5103575;27;45332;-76
2022/06/27 11:16:26;;;;;;;;;1.50;1.25;;;;;22.12;44.38;101333.19;5103440;27;45309;-76
2022/06/27 11:18:52;;;;;;;;;3.50;1.00;;;;;22.11;44.97;101325.16;5103025;27;45390;-76
2022/06/27 11:21:22;;;;;;;;;2.00;1.75;;;;;22.22;44.43;101327.97;5103448;27;45403;-76
2022/06/27 11:23:53;;;;;;;;;1.00;1.00;;;;;22.21;43.86;101320.78;5103222;27;45428;-77
2022/06/27 11:26:21;;;;;;;;;1.50;1.00;;;;;22.31;44.10;101329.19;5103299;27;45268;-76
2022/06/27 11:34:15;;;;;;;;;0.25;0.25;;;;;22.27;43.36;101328.50;5100622;27;45401;-75
2022/06/27 11:36:41;;;;;;;;;1.00;1.00;;;;;22.41;42.96;101346.56;5102905;27;45519;-76